createdAt,value
2019-03-20T00:01:03.430Z,5.97
2019-03-20T00:03:34.840Z,7.25
2019-03-20T00:06:06.372Z,6.03
2019-03-20T00:08:37.808Z,5.62
2019-03-20T00:11:09.544Z,6.12
2019-03-20T00:13:41.813Z,5.55
2019-03-20T00:16:13.546Z,5.62
2019-03-20T00:18:45.002Z,6.83
2019-03-20T00:21:16.599Z,5.62
2019-03-20T00:23:48.208Z,5.80
2019-03-20T00:26:19.828Z,6.08
2019-03-20T00:28:51.341Z,5.87
2019-03-20T00:31:23.059Z,6.65
2019-03-20T00:33:54.580Z,5.47
2019-03-20T00:36:26.272Z,5.80
2019-03-20T00:38:57.790Z,6.08
2019-03-20T00:41:29.365Z,5.72
2019-03-20T00:44:00.822Z,5.83
2019-03-20T00:46:32.194Z,6.33
2019-03-20T00:49:03.406Z,6.45
2019-03-20T00:51:34.842Z,6.37
2019-03-20T00:54:06.276Z,6.45
2019-03-20T00:56:38.602Z,6.22
2019-03-20T00:59:10.065Z,7.20
2019-03-20T01:01:41.546Z,6.80
2019-03-20T01:04:12.856Z,6.47
2019-03-20T01:06:44.368Z,6.17
2019-03-20T01:09:16.689Z,7.00
2019-03-20T01:11:47.963Z,6.75
2019-03-20T01:14:19.288Z,6.92
2019-03-20T01:16:50.716Z,6.37
2019-03-20T01:19:22.101Z,6.67
2019-03-20T01:21:53.756Z,6.90
2019-03-20T01:24:25.467Z,6.85
2019-03-20T01:26:56.803Z,7.20
2019-03-20T01:29:28.196Z,6.58
2019-03-20T01:31:59.613Z,6.53
2019-03-20T01:34:31.008Z,7.20
2019-03-20T01:37:02.733Z,7.22
2019-03-20T01:39:34.143Z,6.35
2019-03-20T01:42:05.537Z,6.67
2019-03-20T01:44:36.735Z,6.85
2019-03-20T01:47:07.984Z,6.90
2019-03-20T01:49:39.283Z,6.95
2019-03-20T01:52:10.830Z,6.95
2019-03-20T01:54:42.118Z,7.03
2019-03-20T01:57:13.373Z,6.75
2019-03-20T01:59:44.899Z,7.42
2019-03-20T02:02:16.310Z,7.37
2019-03-20T02:04:47.480Z,7.67
2019-03-20T02:07:18.934Z,6.78
2019-03-20T02:09:50.311Z,7.25
2019-03-20T02:12:22.209Z,7.05
2019-03-20T02:14:53.512Z,7.37
2019-03-20T02:17:25.168Z,7.87
2019-03-20T02:19:57.493Z,7.53
2019-03-20T02:22:28.743Z,8.73
2019-03-20T02:25:00.403Z,7.70
2019-03-20T02:27:31.976Z,7.95
2019-03-20T02:30:03.453Z,8.43
2019-03-20T02:32:35.284Z,7.65
2019-03-20T02:35:07.348Z,8.18
2019-03-20T02:37:38.704Z,7.97
2019-03-20T02:40:10.604Z,8.48
2019-03-20T02:42:42.011Z,8.20
2019-03-20T02:45:13.750Z,8.23
2019-03-20T02:47:45.248Z,8.50
2019-03-20T02:50:16.770Z,9.15
2019-03-20T02:52:48.154Z,8.60
2019-03-20T02:55:19.466Z,8.95
2019-03-20T02:57:50.977Z,9.58
2019-03-20T03:00:22.601Z,9.53
2019-03-20T03:02:54.415Z,9.20
2019-03-20T03:05:25.835Z,9.83
2019-03-20T03:07:57.382Z,10.08
2019-03-20T03:10:28.747Z,10.98
2019-03-20T03:13:00.318Z,10.25
2019-03-20T03:15:31.730Z,11.12
2019-03-20T03:18:03.017Z,11.50
2019-03-20T03:20:34.230Z,11.03
2019-03-20T03:23:05.593Z,11.95
2019-03-20T03:25:37.063Z,11.75
2019-03-20T03:28:08.289Z,10.80
2019-03-20T03:30:39.654Z,11.75
2019-03-20T03:33:10.991Z,11.78
2019-03-20T03:35:42.307Z,11.60
2019-03-20T03:38:13.879Z,11.73
2019-03-20T03:40:45.735Z,11.35
2019-03-20T03:43:17.281Z,11.43
2019-03-20T03:45:48.845Z,13.20
2019-03-20T03:48:20.365Z,11.35
2019-03-20T03:50:51.927Z,11.73
2019-03-20T03:53:23.500Z,12.20
2019-03-20T03:55:54.850Z,11.75
2019-03-20T03:58:26.188Z,11.20
2019-03-20T04:00:57.568Z,13.72
2019-03-20T04:03:28.874Z,12.35
2019-03-20T04:06:00.207Z,12.15
2019-03-20T04:08:31.643Z,11.80
2019-03-20T04:11:03.375Z,12.50
2019-03-20T04:13:34.957Z,12.40
2019-03-20T04:16:06.372Z,12.23
2019-03-20T04:18:37.712Z,12.15
2019-03-20T04:21:09.094Z,11.70
2019-03-20T04:23:40.353Z,12.35
2019-03-20T04:26:11.946Z,13.20
2019-03-20T04:28:43.246Z,12.93
2019-03-20T04:31:14.538Z,13.43
2019-03-20T04:33:45.975Z,11.73
2019-03-20T04:36:17.309Z,12.75
2019-03-20T04:38:48.543Z,13.05
2019-03-20T04:41:19.838Z,12.88
2019-03-20T04:43:51.109Z,12.98
2019-03-20T04:46:22.427Z,13.08
2019-03-20T04:48:53.687Z,10.80
2019-03-20T04:51:25.019Z,10.90
2019-03-20T04:53:56.367Z,11.22
2019-03-20T04:56:27.708Z,11.75
2019-03-20T04:58:58.937Z,12.73
2019-03-20T05:01:30.277Z,11.35
2019-03-20T05:04:01.803Z,11.83
2019-03-20T05:06:33.193Z,12.70
2019-03-20T05:09:05.603Z,12.70
2019-03-20T05:11:36.866Z,13.35
2019-03-20T05:14:08.428Z,12.07
2019-03-20T05:16:39.773Z,12.60
2019-03-20T05:19:11.133Z,11.70
2019-03-20T05:21:42.429Z,12.68
2019-03-20T05:24:13.667Z,12.63
2019-03-20T05:26:44.970Z,12.50
2019-03-20T05:29:16.218Z,12.33
2019-03-20T05:31:48.558Z,12.10
2019-03-20T05:34:19.836Z,12.05
2019-03-20T05:36:51.243Z,12.13
2019-03-20T05:39:22.538Z,11.88
2019-03-20T05:41:53.888Z,11.22
2019-03-20T05:44:25.162Z,12.50
2019-03-20T05:46:56.794Z,11.25
2019-03-20T05:49:28.029Z,11.88
2019-03-20T05:51:59.261Z,11.97
2019-03-20T05:54:30.893Z,15.43
2019-03-20T05:57:02.229Z,12.95
2019-03-20T05:59:33.698Z,12.28
2019-03-20T06:02:05.170Z,12.95
2019-03-20T06:04:36.702Z,12.65
2019-03-20T06:07:08.081Z,12.25
2019-03-20T06:09:39.385Z,12.65
2019-03-20T06:12:11.124Z,12.63
2019-03-20T06:14:42.521Z,12.47
2019-03-20T06:17:14.119Z,12.82
2019-03-20T06:19:45.970Z,12.15
2019-03-20T06:22:17.630Z,12.50
2019-03-20T06:24:49.048Z,12.60
2019-03-20T06:27:20.661Z,13.38
2019-03-20T06:29:53.734Z,16.05
2019-03-20T06:32:25.293Z,39.55
2019-03-20T06:34:56.922Z,14.07
2019-03-20T06:37:32.461Z,14.15
2019-03-20T06:40:01.791Z,15.43
2019-03-20T06:42:33.550Z,15.75
2019-03-20T06:45:05.657Z,14.83
2019-03-20T06:47:37.361Z,14.58
2019-03-20T06:50:11.884Z,15.08
2019-03-20T06:52:43.326Z,13.85
2019-03-20T06:55:14.970Z,14.35
2019-03-20T06:57:46.633Z,14.70
2019-03-20T07:01:01.591Z,13.50
2019-03-20T07:03:53.122Z,13.20
2019-03-20T07:06:47.635Z,13.87
2019-03-20T07:09:55.843Z,14.90
2019-03-20T07:12:27.057Z,13.97
2019-03-20T07:14:58.625Z,14.98
2019-03-20T07:17:30.620Z,13.80
2019-03-20T07:20:01.844Z,15.50
2019-03-20T07:22:33.389Z,15.43
2019-03-20T07:25:04.711Z,13.73
2019-03-20T07:27:35.760Z,13.67
2019-03-20T07:30:07.695Z,14.17
2019-03-20T07:32:39.013Z,14.50
2019-03-20T07:35:11.134Z,13.67
2019-03-20T07:37:42.254Z,12.57
2019-03-20T07:40:13.397Z,12.93
2019-03-20T07:42:44.611Z,13.47
2019-03-20T07:45:16.037Z,13.77
2019-03-20T07:47:47.115Z,12.70
2019-03-20T07:50:18.410Z,12.90
2019-03-20T07:52:49.727Z,13.27
2019-03-20T07:55:20.686Z,12.40
2019-03-20T07:57:52.214Z,12.63
2019-03-20T08:00:23.168Z,14.17
2019-03-20T08:02:54.486Z,12.60
2019-03-20T08:05:29.386Z,13.40
2019-03-20T08:08:07.335Z,12.43
2019-03-20T08:10:32.375Z,11.00
2019-03-20T08:13:03.408Z,11.97
2019-03-20T08:15:34.554Z,12.17
2019-03-20T08:18:05.993Z,11.70
2019-03-20T08:20:37.185Z,11.80
2019-03-20T08:23:08.246Z,12.10
2019-03-20T08:25:39.332Z,11.83
2019-03-20T08:28:10.375Z,11.73
2019-03-20T08:30:41.659Z,12.43
2019-03-20T08:33:12.731Z,10.97
2019-03-20T08:35:43.950Z,13.10
2019-03-20T08:38:18.473Z,11.13
2019-03-20T08:40:47.703Z,11.20
2019-03-20T08:43:18.686Z,12.70
2019-03-20T08:45:49.923Z,11.43
2019-03-20T08:48:21.023Z,11.20
2019-03-20T08:50:52.409Z,11.80
2019-03-20T08:53:23.662Z,13.07
2019-03-20T08:55:55.142Z,12.27
2019-03-20T08:58:26.493Z,11.27
2019-03-20T09:00:57.924Z,11.43
2019-03-20T09:03:29.256Z,11.93
2019-03-20T09:06:00.546Z,12.63
2019-03-20T09:08:31.883Z,11.80
2019-03-20T09:11:03.018Z,11.40
2019-03-20T09:13:34.150Z,10.93
2019-03-20T09:16:05.513Z,11.80
2019-03-20T09:18:36.839Z,11.87
2019-03-20T09:21:08.334Z,11.93
2019-03-20T09:23:40.820Z,11.57
2019-03-20T09:26:12.134Z,11.30
2019-03-20T09:28:43.249Z,11.27
2019-03-20T09:31:14.399Z,10.90
2019-03-20T09:33:45.426Z,10.60
2019-03-20T09:36:16.399Z,11.33
2019-03-20T09:38:47.338Z,10.70
2019-03-20T09:41:18.606Z,11.50
2019-03-20T09:43:49.719Z,11.30
2019-03-20T09:46:21.701Z,12.03
2019-03-20T09:48:52.899Z,11.23
2019-03-20T09:51:24.219Z,11.17
2019-03-20T09:53:55.519Z,12.30
2019-03-20T09:56:27.942Z,11.87
2019-03-20T09:58:58.953Z,11.30
2019-03-20T10:01:30.220Z,11.07
2019-03-20T10:04:01.275Z,11.77
2019-03-20T10:06:32.734Z,12.03
2019-03-20T10:09:04.066Z,11.23
2019-03-20T10:11:35.236Z,11.70
2019-03-20T10:14:06.482Z,11.33
2019-03-20T10:16:37.880Z,11.40
2019-03-20T10:19:09.175Z,11.23
2019-03-20T10:21:40.721Z,11.33
2019-03-20T10:24:12.047Z,12.20
2019-03-20T10:26:43.473Z,11.10
2019-03-20T10:29:14.536Z,10.80
2019-03-20T10:31:45.788Z,11.23
2019-03-20T10:34:17.193Z,11.03
2019-03-20T10:36:48.167Z,10.43
2019-03-20T10:39:19.211Z,9.90
2019-03-20T10:41:50.369Z,9.90
2019-03-20T10:44:21.534Z,10.37
2019-03-20T10:46:53.850Z,9.70
2019-03-20T10:49:25.983Z,10.47
2019-03-20T10:51:57.286Z,10.90
2019-03-20T10:54:28.526Z,10.53
2019-03-20T10:56:59.881Z,9.30
2019-03-20T10:59:31.351Z,10.07
2019-03-20T11:02:02.926Z,9.93
2019-03-20T11:04:35.048Z,9.53
2019-03-20T11:07:06.509Z,8.90
2019-03-20T11:09:37.692Z,9.20
2019-03-20T11:12:08.989Z,9.63
2019-03-20T11:14:40.501Z,9.37
2019-03-20T11:17:11.798Z,10.03
2019-03-20T11:19:42.827Z,9.20
2019-03-20T11:22:18.675Z,9.33
2019-03-20T11:24:47.224Z,8.83
2019-03-20T11:27:18.395Z,8.87
2019-03-20T11:29:49.824Z,8.70
2019-03-20T11:32:21.412Z,9.67
2019-03-20T11:34:52.863Z,9.57
2019-03-20T11:37:24.246Z,9.50
2019-03-20T11:39:55.373Z,9.10
2019-03-20T11:42:26.395Z,9.83
2019-03-20T11:44:57.498Z,9.50
2019-03-20T11:47:28.774Z,9.80
2019-03-20T11:50:01.064Z,9.23
2019-03-20T11:52:32.371Z,9.17
2019-03-20T11:55:03.780Z,8.97
2019-03-20T11:57:35.305Z,8.87
2019-03-20T12:00:07.536Z,8.73
2019-03-20T12:02:39.003Z,8.60
2019-03-20T12:05:10.172Z,8.47
2019-03-20T12:07:41.423Z,8.93
2019-03-20T12:10:15.379Z,8.07
2019-03-20T12:12:46.372Z,7.90
2019-03-20T12:15:17.914Z,8.50
2019-03-20T12:17:49.249Z,8.37
2019-03-20T12:20:20.675Z,7.57
2019-03-20T12:22:51.987Z,8.03
2019-03-20T12:25:28.076Z,8.10
2019-03-20T12:27:59.254Z,8.10
2019-03-20T12:30:31.033Z,8.30
2019-03-20T12:33:02.292Z,8.23
2019-03-20T12:35:33.789Z,8.07
2019-03-20T12:38:13.801Z,7.80
2019-03-20T12:40:37.983Z,8.03
2019-03-20T12:43:09.240Z,8.17
2019-03-20T12:45:40.727Z,8.00
2019-03-20T12:48:11.815Z,7.50
2019-03-20T12:50:42.947Z,8.87
2019-03-20T12:53:14.028Z,7.80
2019-03-20T12:55:45.250Z,9.20
2019-03-20T12:58:16.251Z,7.63
2019-03-20T13:03:17.321Z,8.70
2019-03-20T13:05:48.387Z,7.53
2019-03-20T13:08:19.335Z,7.80
2019-03-20T13:10:50.376Z,7.80
2019-03-20T13:13:21.432Z,7.77
2019-03-20T13:15:52.843Z,7.57
2019-03-20T13:18:23.817Z,7.20
2019-03-20T13:20:54.876Z,7.90
2019-03-20T13:23:28.237Z,7.90
2019-03-20T13:26:00.887Z,8.60
2019-03-20T13:28:32.364Z,8.00
2019-03-20T13:31:07.267Z,8.57
2019-03-20T13:33:38.377Z,8.57
2019-03-20T13:36:09.800Z,7.70
2019-03-20T13:38:40.957Z,8.23
2019-03-20T13:41:12.163Z,8.30
2019-03-20T13:43:43.219Z,8.37
2019-03-20T13:46:14.489Z,7.37
2019-03-20T13:48:45.871Z,8.23
2019-03-20T13:51:16.796Z,8.07
2019-03-20T13:53:47.908Z,7.63
2019-03-20T13:56:19.168Z,8.23
2019-03-20T13:58:52.328Z,8.07
2019-03-20T14:01:23.511Z,8.43
2019-03-20T14:03:54.873Z,8.10
2019-03-20T14:06:25.829Z,8.83
2019-03-20T14:08:56.911Z,8.73
2019-03-20T14:11:27.948Z,9.33
2019-03-20T14:13:59.283Z,7.57
2019-03-20T14:16:30.535Z,7.67
2019-03-20T14:19:01.565Z,8.77
2019-03-20T14:21:32.745Z,9.97
2019-03-20T14:24:03.988Z,8.20
2019-03-20T14:26:35.182Z,8.47
2019-03-20T14:29:06.531Z,8.53
2019-03-20T14:31:37.617Z,8.83
2019-03-20T14:34:09.040Z,8.67
2019-03-20T14:36:40.204Z,11.17
2019-03-20T14:39:11.438Z,8.03
2019-03-20T14:41:42.575Z,8.57
2019-03-20T14:44:14.599Z,8.63
2019-03-20T14:46:45.785Z,9.60
2019-03-20T14:49:16.828Z,10.53
2019-03-20T14:51:47.974Z,8.43
2019-03-20T14:54:18.966Z,8.40
2019-03-20T14:56:49.929Z,8.87
2019-03-20T14:59:20.874Z,8.83
2019-03-20T15:01:52.127Z,10.60
2019-03-20T15:04:23.362Z,8.53
2019-03-20T15:06:54.474Z,8.60
2019-03-20T15:09:25.777Z,9.00
2019-03-20T15:11:57.045Z,9.17
2019-03-20T15:14:28.248Z,8.80
2019-03-20T15:16:59.498Z,8.90
2019-03-20T15:19:30.767Z,8.47
2019-03-20T15:22:02.103Z,16.50
2019-03-20T15:24:33.271Z,9.43
2019-03-20T15:27:04.810Z,9.30
2019-03-20T15:29:37.277Z,9.20
2019-03-20T15:32:08.397Z,9.63
2019-03-20T15:34:39.371Z,9.17
2019-03-20T15:37:10.534Z,9.30
2019-03-20T15:39:41.781Z,8.83
2019-03-20T15:42:12.957Z,9.13
2019-03-20T15:44:44.611Z,8.93
2019-03-20T15:47:15.855Z,9.80
2019-03-20T15:49:46.826Z,9.87
2019-03-20T15:52:18.127Z,9.73
2019-03-20T15:54:49.586Z,10.63
2019-03-20T15:57:20.933Z,10.13
2019-03-20T15:59:52.182Z,10.00
2019-03-20T16:02:23.759Z,10.77
2019-03-20T16:04:54.729Z,10.33
2019-03-20T16:07:26.049Z,10.27
2019-03-20T16:09:57.389Z,9.77
2019-03-20T16:12:28.701Z,10.40
2019-03-20T16:15:00.324Z,10.73
2019-03-20T16:17:31.240Z,11.23
2019-03-20T16:20:02.344Z,10.77
2019-03-20T16:22:34.560Z,11.00
2019-03-20T16:25:06.344Z,11.80
2019-03-20T16:27:37.288Z,11.77
2019-03-20T16:30:11.213Z,11.57
2019-03-20T16:32:42.456Z,12.87
2019-03-20T16:35:13.622Z,11.53
2019-03-20T16:37:44.613Z,11.47
2019-03-20T16:40:20.111Z,11.73
2019-03-20T16:42:51.451Z,11.93
2019-03-20T16:45:24.687Z,11.20
2019-03-20T16:47:55.755Z,12.20
2019-03-20T16:50:27.075Z,12.30
2019-03-20T16:52:58.619Z,10.80
2019-03-20T16:55:29.884Z,12.33
2019-03-20T16:58:00.909Z,12.83
2019-03-20T17:00:32.174Z,12.17
2019-03-20T17:03:03.328Z,12.83
2019-03-20T17:05:34.311Z,12.97
2019-03-20T17:08:05.955Z,12.47
2019-03-20T17:10:38.612Z,14.23
2019-03-20T17:13:09.672Z,13.17
2019-03-20T17:15:40.677Z,14.47
2019-03-20T17:18:11.943Z,26.87
2019-03-20T17:20:43.468Z,14.87
2019-03-20T17:23:14.505Z,14.83
2019-03-20T17:25:45.911Z,16.87
2019-03-20T17:28:17.141Z,14.70
2019-03-20T17:30:48.646Z,15.50
2019-03-20T17:33:19.762Z,15.60
2019-03-20T17:35:51.285Z,14.98
2019-03-20T17:38:22.253Z,14.97
2019-03-20T17:40:53.674Z,18.60
2019-03-20T17:43:24.886Z,15.98
2019-03-20T17:45:56.615Z,14.28
2019-03-20T17:48:27.882Z,15.60
2019-03-20T17:50:59.414Z,14.17
2019-03-20T17:53:30.664Z,14.83
2019-03-20T17:56:02.062Z,14.73
2019-03-20T17:58:33.359Z,13.95
2019-03-20T18:01:05.017Z,15.75
2019-03-20T18:03:36.311Z,14.28
2019-03-20T18:06:07.677Z,20.27
2019-03-20T18:08:39.456Z,17.35
2019-03-20T18:11:10.952Z,14.78
2019-03-20T18:13:42.241Z,13.65
2019-03-20T18:16:13.998Z,13.00
2019-03-20T18:18:44.929Z,13.80
2019-03-20T18:21:16.468Z,14.43
2019-03-20T18:23:47.989Z,15.53
2019-03-20T18:26:19.376Z,14.55
2019-03-20T18:28:50.773Z,13.90
2019-03-20T18:31:22.114Z,15.08
2019-03-20T18:33:53.463Z,16.42
2019-03-20T18:36:25.732Z,16.57
2019-03-20T18:38:57.467Z,15.10
2019-03-20T18:41:29.039Z,26.23
2019-03-20T18:44:01.435Z,26.80
2019-03-20T18:46:32.677Z,57.80
2019-03-20T18:49:04.499Z,13.00
2019-03-20T18:51:35.863Z,14.10
2019-03-20T18:54:07.450Z,13.25
2019-03-20T18:56:38.897Z,14.28
2019-03-20T18:59:10.606Z,15.00
2019-03-20T19:01:41.868Z,14.03
2019-03-20T19:04:12.944Z,15.03
2019-03-20T19:06:44.350Z,15.43
2019-03-20T19:09:15.859Z,17.55
2019-03-20T19:11:47.582Z,18.10
2019-03-20T19:14:20.363Z,17.87
2019-03-20T19:16:52.042Z,16.75
2019-03-20T19:19:23.627Z,17.42
2019-03-20T19:21:55.165Z,17.60
2019-03-20T19:24:26.438Z,18.10
2019-03-20T19:26:58.584Z,18.52
2019-03-20T19:29:29.828Z,17.52
2019-03-20T19:32:01.154Z,18.00
2019-03-20T19:34:32.575Z,18.82
2019-03-20T19:37:03.788Z,19.30
2019-03-20T19:39:35.213Z,19.25
2019-03-20T19:42:34.636Z,20.12
2019-03-20T19:45:30.458Z,20.15
2019-03-20T19:48:48.929Z,19.35
2019-03-20T19:52:11.556Z,20.35
2019-03-20T19:54:48.627Z,19.27
2019-03-20T19:57:31.262Z,19.25
2019-03-20T20:00:05.143Z,20.82
2019-03-20T20:03:21.694Z,20.90
2019-03-20T20:05:53.091Z,22.90
2019-03-20T20:08:25.486Z,24.07
2019-03-20T20:10:56.735Z,25.62
2019-03-20T20:13:28.012Z,24.02
2019-03-20T20:15:59.267Z,24.27
2019-03-20T20:18:30.631Z,24.32
2019-03-20T20:21:02.018Z,19.85
2019-03-20T20:23:34.487Z,19.62
2019-03-20T20:26:06.031Z,19.15
2019-03-20T20:28:37.424Z,18.20
2019-03-20T20:31:08.775Z,18.75
2019-03-20T20:33:40.047Z,17.98
2019-03-20T20:36:11.630Z,17.10
2019-03-20T20:38:42.875Z,16.85
2019-03-20T20:41:14.464Z,16.95
2019-03-20T20:43:45.877Z,18.02
2019-03-20T20:46:17.494Z,16.27
2019-03-20T20:48:48.772Z,17.98
2019-03-20T20:51:19.964Z,18.65
2019-03-20T20:53:51.251Z,20.55
2019-03-20T20:56:22.839Z,20.05
2019-03-20T20:58:54.707Z,19.57
2019-03-20T21:01:26.979Z,18.90
2019-03-20T21:03:58.039Z,18.37
2019-03-20T21:06:29.630Z,18.80
2019-03-20T21:09:01.323Z,18.65
2019-03-20T21:11:34.579Z,18.98
2019-03-20T21:14:05.775Z,37.10
2019-03-20T21:16:38.607Z,21.27
2019-03-20T21:19:34.205Z,32.00
2019-03-20T21:22:43.473Z,18.17
2019-03-20T21:25:16.781Z,18.48
2019-03-20T21:28:32.865Z,17.57
2019-03-20T21:31:23.679Z,19.30
2019-03-20T21:34:34.013Z,19.40
2019-03-20T21:37:28.446Z,19.23
2019-03-20T21:40:00.754Z,18.12
2019-03-20T21:43:08.530Z,18.17
2019-03-20T21:46:28.055Z,18.85
2019-03-20T21:48:59.940Z,17.77
2019-03-20T21:51:32.108Z,17.42
2019-03-20T21:54:41.797Z,17.32
2019-03-20T21:57:52.992Z,16.62
2019-03-20T22:01:18.458Z,17.42
2019-03-20T22:03:50.369Z,17.00
2019-03-20T22:06:56.750Z,17.42
2019-03-20T22:10:03.410Z,18.40
2019-03-20T22:12:50.161Z,18.10
2019-03-20T22:15:54.975Z,18.62
2019-03-20T22:19:01.345Z,19.20
2019-03-20T22:22:09.081Z,20.17
2019-03-20T22:25:30.460Z,21.30
2019-03-20T22:29:03.515Z,20.25
2019-03-20T22:31:36.769Z,21.00
2019-03-20T22:34:38.050Z,20.37
2019-03-20T22:37:10.178Z,20.25
2019-03-20T22:40:29.992Z,20.50
2019-03-20T22:43:39.110Z,20.15
2019-03-20T22:46:44.059Z,21.60
2019-03-20T22:50:04.150Z,20.48
2019-03-20T22:53:10.847Z,19.98
2019-03-20T22:56:00.075Z,19.23
2019-03-20T22:58:50.471Z,20.02
2019-03-20T23:01:36.969Z,19.60
2019-03-20T23:04:13.355Z,20.00
2019-03-20T23:06:45.335Z,20.37
2019-03-20T23:09:17.116Z,19.48
2019-03-20T23:11:49.006Z,19.80
2019-03-20T23:14:21.025Z,20.92
2019-03-20T23:16:52.950Z,20.70
2019-03-20T23:19:25.127Z,20.20
2019-03-20T23:21:56.964Z,20.62
2019-03-20T23:24:28.815Z,19.55
2019-03-20T23:27:02.138Z,18.60
2019-03-20T23:29:34.103Z,20.70
2019-03-20T23:32:06.294Z,20.10
2019-03-20T23:34:38.139Z,19.77
2019-03-20T23:37:10.468Z,21.10
2019-03-20T23:39:42.427Z,20.17
2019-03-20T23:42:14.228Z,20.02
2019-03-20T23:44:47.800Z,20.05
2019-03-20T23:47:25.619Z,20.17
2019-03-20T23:49:58.012Z,20.37
2019-03-20T23:52:30.003Z,19.65
2019-03-20T23:55:02.177Z,19.35
2019-03-20T23:57:34.080Z,20.72
